sensor_id;sensor_type;location;lat;lon;timestamp;temperature;humidity
73586;DHT22;61865;50.232;18.614;2023-01-24T00:01:15;2.10;99.90
73586;DHT22;61865;50.232;18.614;2023-01-24T00:03:37;2.10;99.90
73586;DHT22;61865;50.232;18.614;2023-01-24T00:05:58;2.10;99.90
73586;DHT22;61865;50.232;18.614;2023-01-24T00:08:20;2.10;99.90
73586;DHT22;61865;50.232;18.614;2023-01-24T00:10:43;2.10;99.90
73586;DHT22;61865;50.232;18.614;2023-01-24T00:13:04;2.10;99.90
73586;DHT22;61865;50.232;18.614;2023-01-24T00:15:26;2.10;99.90
73586;DHT22;61865;50.232;18.614;2023-01-24T00:17:49;2.10;99.90
73586;DHT22;61865;50.232;18.614;2023-01-24T00:20:11;2.10;99.90
73586;DHT22;61865;50.232;18.614;2023-01-24T00:22:33;2.10;99.90
73586;DHT22;61865;50.232;18.614;2023-01-24T00:24:54;2.10;99.90
73586;DHT22;61865;50.232;18.614;2023-01-24T00:27:16;2.00;99.90
73586;DHT22;61865;50.232;18.614;2023-01-24T00:29:38;2.00;99.90
73586;DHT22;61865;50.232;18.614;2023-01-24T00:32:00;2.00;99.90
73586;DHT22;61865;50.232;18.614;2023-01-24T00:34:23;2.10;99.90
73586;DHT22;61865;50.232;18.614;2023-01-24T00:36:45;2.10;99.90
73586;DHT22;61865;50.232;18.614;2023-01-24T00:39:06;2.10;99.90
73586;DHT22;61865;50.232;18.614;2023-01-24T00:41:28;2.00;99.90
73586;DHT22;61865;50.232;18.614;2023-01-24T00:43:50;2.00;99.90
73586;DHT22;61865;50.232;18.614;2023-01-24T00:46:11;2.00;99.90
73586;DHT22;61865;50.232;18.614;2023-01-24T00:48:33;2.00;99.90
73586;DHT22;61865;50.232;18.614;2023-01-24T00:50:56;2.00;99.90
73586;DHT22;61865;50.232;18.614;2023-01-24T00:53:18;2.00;99.90
73586;DHT22;61865;50.232;18.614;2023-01-24T00:55:41;2.00;99.90
73586;DHT22;61865;50.232;18.614;2023-01-24T00:58:03;2.10;99.90
73586;DHT22;61865;50.232;18.614;2023-01-24T01:00:27;2.10;99.90
73586;DHT22;61865;50.232;18.614;2023-01-24T01:02:49;2.10;99.90
73586;DHT22;61865;50.232;18.614;2023-01-24T01:05:11;2.10;99.90
73586;DHT22;61865;50.232;18.614;2023-01-24T01:07:34;2.00;99.90
73586;DHT22;61865;50.232;18.614;2023-01-24T01:09:56;2.00;99.90
73586;DHT22;61865;50.232;18.614;2023-01-24T01:12:17;2.10;99.90
73586;DHT22;61865;50.232;18.614;2023-01-24T01:14:39;2.10;99.90
73586;DHT22;61865;50.232;18.614;2023-01-24T01:17:01;2.10;99.90
73586;DHT22;61865;50.232;18.614;2023-01-24T01:19:22;2.10;99.90
73586;DHT22;61865;50.232;18.614;2023-01-24T01:21:44;2.10;99.90
73586;DHT22;61865;50.232;18.614;2023-01-24T01:24:07;2.10;99.90
73586;DHT22;61865;50.232;18.614;2023-01-24T01:26:29;2.10;99.90
73586;DHT22;61865;50.232;18.614;2023-01-24T01:28:51;2.00;99.90
73586;DHT22;61865;50.232;18.614;2023-01-24T01:31:13;2.00;99.90
73586;DHT22;61865;50.232;18.614;2023-01-24T01:33:35;2.10;99.90
73586;DHT22;61865;50.232;18.614;2023-01-24T01:35:57;2.10;99.90
73586;DHT22;61865;50.232;18.614;2023-01-24T01:38:18;2.10;99.90
73586;DHT22;61865;50.232;18.614;2023-01-24T01:40:42;2.00;99.90
73586;DHT22;61865;50.232;18.614;2023-01-24T01:43:05;2.10;99.90
73586;DHT22;61865;50.232;18.614;2023-01-24T01:45:31;2.10;99.90
73586;DHT22;61865;50.232;18.614;2023-01-24T01:47:54;2.10;99.90
73586;DHT22;61865;50.232;18.614;2023-01-24T01:50:18;2.10;99.90
73586;DHT22;61865;50.232;18.614;2023-01-24T01:52:42;2.10;99.90
73586;DHT22;61865;50.232;18.614;2023-01-24T01:55:05;2.10;99.90
73586;DHT22;61865;50.232;18.614;2023-01-24T01:57:29;2.10;99.90
73586;DHT22;61865;50.232;18.614;2023-01-24T01:59:52;2.10;99.90
73586;DHT22;61865;50.232;18.614;2023-01-24T02:02:16;2.10;99.90
73586;DHT22;61865;50.232;18.614;2023-01-24T02:04:41;2.10;99.90
73586;DHT22;61865;50.232;18.614;2023-01-24T02:07:06;2.10;99.90
73586;DHT22;61865;50.232;18.614;2023-01-24T02:09:31;2.00;99.90
73586;DHT22;61865;50.232;18.614;2023-01-24T02:11:54;2.00;99.90
73586;DHT22;61865;50.232;18.614;2023-01-24T02:14:18;2.00;99.90
73586;DHT22;61865;50.232;18.614;2023-01-24T02:16:58;2.00;99.90
73586;DHT22;61865;50.232;18.614;2023-01-24T02:19:27;2.00;99.90
73586;DHT22;61865;50.232;18.614;2023-01-24T02:21:51;2.00;99.90
73586;DHT22;61865;50.232;18.614;2023-01-24T02:24:17;2.00;99.90
73586;DHT22;61865;50.232;18.614;2023-01-24T02:26:44;2.00;99.90
73586;DHT22;61865;50.232;18.614;2023-01-24T02:29:06;2.00;99.90
73586;DHT22;61865;50.232;18.614;2023-01-24T02:31:28;2.00;99.90
73586;DHT22;61865;50.232;18.614;2023-01-24T02:33:50;2.00;99.90
73586;DHT22;61865;50.232;18.614;2023-01-24T02:36:15;2.00;99.90
73586;DHT22;61865;50.232;18.614;2023-01-24T02:38:38;2.00;99.90
73586;DHT22;61865;50.232;18.614;2023-01-24T02:41:01;2.00;99.90
73586;DHT22;61865;50.232;18.614;2023-01-24T02:43:28;2.00;99.90
73586;DHT22;61865;50.232;18.614;2023-01-24T02:45:50;2.00;99.90
73586;DHT22;61865;50.232;18.614;2023-01-24T02:48:12;2.00;99.90
73586;DHT22;61865;50.232;18.614;2023-01-24T02:50:34;2.00;99.90
73586;DHT22;61865;50.232;18.614;2023-01-24T02:53:09;2.00;99.90
73586;DHT22;61865;50.232;18.614;2023-01-24T02:55:48;2.10;99.90
73586;DHT22;61865;50.232;18.614;2023-01-24T02:58:24;2.10;99.90
73586;DHT22;61865;50.232;18.614;2023-01-24T03:00:47;2.10;99.90
73586;DHT22;61865;50.232;18.614;2023-01-24T03:03:09;2.10;99.90
73586;DHT22;61865;50.232;18.614;2023-01-24T03:05:31;2.10;99.90
73586;DHT22;61865;50.232;18.614;2023-01-24T03:08:07;2.10;99.90
73586;DHT22;61865;50.232;18.614;2023-01-24T03:10:28;2.10;99.90
73586;DHT22;61865;50.232;18.614;2023-01-24T03:12:50;2.10;99.90
73586;DHT22;61865;50.232;18.614;2023-01-24T03:15:29;2.10;99.90
73586;DHT22;61865;50.232;18.614;2023-01-24T03:18:10;2.10;99.90
73586;DHT22;61865;50.232;18.614;2023-01-24T03:20:50;2.10;99.90
73586;DHT22;61865;50.232;18.614;2023-01-24T03:23:29;2.10;99.90
73586;DHT22;61865;50.232;18.614;2023-01-24T03:26:08;2.10;99.90
73586;DHT22;61865;50.232;18.614;2023-01-24T03:28:47;2.10;99.90
73586;DHT22;61865;50.232;18.614;2023-01-24T03:31:27;2.10;99.90
73586;DHT22;61865;50.232;18.614;2023-01-24T03:34:07;2.10;99.90
73586;DHT22;61865;50.232;18.614;2023-01-24T03:36:47;2.10;99.90
73586;DHT22;61865;50.232;18.614;2023-01-24T03:39:08;2.10;99.90
73586;DHT22;61865;50.232;18.614;2023-01-24T03:41:48;2.20;99.90
73586;DHT22;61865;50.232;18.614;2023-01-24T03:44:10;2.10;99.90
73586;DHT22;61865;50.232;18.614;2023-01-24T03:46:31;2.10;99.90
73586;DHT22;61865;50.232;18.614;2023-01-24T03:48:53;2.20;99.90
73586;DHT22;61865;50.232;18.614;2023-01-24T03:51:16;2.20;99.90
73586;DHT22;61865;50.232;18.614;2023-01-24T03:53:56;2.20;99.90
73586;DHT22;61865;50.232;18.614;2023-01-24T03:56:18;2.20;99.90
73586;DHT22;61865;50.232;18.614;2023-01-24T03:58:39;2.20;99.90
73586;DHT22;61865;50.232;18.614;2023-01-24T04:01:01;2.20;99.90
73586;DHT22;61865;50.232;18.614;2023-01-24T04:03:23;2.20;99.90
73586;DHT22;61865;50.232;18.614;2023-01-24T04:05:45;2.20;99.90
73586;DHT22;61865;50.232;18.614;2023-01-24T04:08:08;2.20;99.90
73586;DHT22;61865;50.232;18.614;2023-01-24T04:10:30;2.20;99.90
73586;DHT22;61865;50.232;18.614;2023-01-24T04:12:53;2.20;99.90
73586;DHT22;61865;50.232;18.614;2023-01-24T04:15:15;2.20;99.90
73586;DHT22;61865;50.232;18.614;2023-01-24T04:17:37;2.20;99.90
73586;DHT22;61865;50.232;18.614;2023-01-24T04:19:59;2.20;99.90
73586;DHT22;61865;50.232;18.614;2023-01-24T04:22:21;2.20;99.90
73586;DHT22;61865;50.232;18.614;2023-01-24T04:24:44;2.20;99.90
73586;DHT22;61865;50.232;18.614;2023-01-24T04:27:06;2.20;99.90
73586;DHT22;61865;50.232;18.614;2023-01-24T04:29:27;2.20;99.90
73586;DHT22;61865;50.232;18.614;2023-01-24T04:31:49;2.20;99.90
73586;DHT22;61865;50.232;18.614;2023-01-24T04:34:11;2.20;99.90
73586;DHT22;61865;50.232;18.614;2023-01-24T04:36:33;2.20;99.90
73586;DHT22;61865;50.232;18.614;2023-01-24T04:38:54;2.20;99.90
73586;DHT22;61865;50.232;18.614;2023-01-24T04:41:17;2.20;99.90
73586;DHT22;61865;50.232;18.614;2023-01-24T04:43:39;2.20;99.90
73586;DHT22;61865;50.232;18.614;2023-01-24T04:46:01;2.20;99.90
73586;DHT22;61865;50.232;18.614;2023-01-24T04:48:23;2.20;99.90
73586;DHT22;61865;50.232;18.614;2023-01-24T04:50:44;2.20;99.90
73586;DHT22;61865;50.232;18.614;2023-01-24T04:53:06;2.20;99.90
73586;DHT22;61865;50.232;18.614;2023-01-24T04:55:28;2.20;99.90
73586;DHT22;61865;50.232;18.614;2023-01-24T04:57:51;2.20;99.90
73586;DHT22;61865;50.232;18.614;2023-01-24T05:00:13;2.20;99.90
73586;DHT22;61865;50.232;18.614;2023-01-24T05:02:35;2.20;99.90
73586;DHT22;61865;50.232;18.614;2023-01-24T05:04:57;2.20;99.90
73586;DHT22;61865;50.232;18.614;2023-01-24T05:07:19;2.20;99.90
73586;DHT22;61865;50.232;18.614;2023-01-24T05:09:41;2.20;99.90
73586;DHT22;61865;50.232;18.614;2023-01-24T05:12:02;2.20;99.90
73586;DHT22;61865;50.232;18.614;2023-01-24T05:14:26;2.20;99.90
73586;DHT22;61865;50.232;18.614;2023-01-24T05:16:47;2.20;99.90
73586;DHT22;61865;50.232;18.614;2023-01-24T05:19:09;2.20;99.90
73586;DHT22;61865;50.232;18.614;2023-01-24T05:21:31;2.20;99.90
73586;DHT22;61865;50.232;18.614;2023-01-24T05:23:53;2.20;99.90
73586;DHT22;61865;50.232;18.614;2023-01-24T05:26:14;2.20;99.90
73586;DHT22;61865;50.232;18.614;2023-01-24T05:28:36;2.20;99.90
73586;DHT22;61865;50.232;18.614;2023-01-24T05:30:59;2.20;99.90
73586;DHT22;61865;50.232;18.614;2023-01-24T05:33:21;2.20;99.90
73586;DHT22;61865;50.232;18.614;2023-01-24T05:35:43;2.20;99.90
73586;DHT22;61865;50.232;18.614;2023-01-24T05:38:05;2.20;99.90
73586;DHT22;61865;50.232;18.614;2023-01-24T05:40:26;2.20;99.90
73586;DHT22;61865;50.232;18.614;2023-01-24T05:42:48;2.30;99.90
73586;DHT22;61865;50.232;18.614;2023-01-24T05:45:10;2.30;99.90
73586;DHT22;61865;50.232;18.614;2023-01-24T05:47:33;2.20;99.90
73586;DHT22;61865;50.232;18.614;2023-01-24T05:49:55;2.20;99.90
73586;DHT22;61865;50.232;18.614;2023-01-24T05:52:17;2.20;99.90
73586;DHT22;61865;50.232;18.614;2023-01-24T05:54:41;2.30;99.90
73586;DHT22;61865;50.232;18.614;2023-01-24T05:57:03;2.30;99.90
73586;DHT22;61865;50.232;18.614;2023-01-24T05:59:25;2.30;99.90
73586;DHT22;61865;50.232;18.614;2023-01-24T06:01:46;2.30;99.90
73586;DHT22;61865;50.232;18.614;2023-01-24T06:04:09;2.30;99.90
73586;DHT22;61865;50.232;18.614;2023-01-24T06:06:31;2.30;99.90
73586;DHT22;61865;50.232;18.614;2023-01-24T06:08:53;2.30;99.90
73586;DHT22;61865;50.232;18.614;2023-01-24T06:11:15;2.30;99.90
73586;DHT22;61865;50.232;18.614;2023-01-24T06:13:37;2.30;99.90
73586;DHT22;61865;50.232;18.614;2023-01-24T06:16:02;2.30;99.90
73586;DHT22;61865;50.232;18.614;2023-01-24T06:18:24;2.30;99.90
73586;DHT22;61865;50.232;18.614;2023-01-24T06:20:47;2.30;99.90
73586;DHT22;61865;50.232;18.614;2023-01-24T06:23:20;2.30;99.90
73586;DHT22;61865;50.232;18.614;2023-01-24T06:25:44;2.20;99.90
73586;DHT22;61865;50.232;18.614;2023-01-24T06:28:07;2.20;99.90
73586;DHT22;61865;50.232;18.614;2023-01-24T06:30:29;2.20;99.90
73586;DHT22;61865;50.232;18.614;2023-01-24T06:32:57;2.30;99.90
73586;DHT22;61865;50.232;18.614;2023-01-24T06:35:24;2.30;99.90
73586;DHT22;61865;50.232;18.614;2023-01-24T06:37:49;2.30;99.90
73586;DHT22;61865;50.232;18.614;2023-01-24T06:40:12;2.30;99.90
73586;DHT22;61865;50.232;18.614;2023-01-24T06:42:35;2.30;99.90
73586;DHT22;61865;50.232;18.614;2023-01-24T06:44:56;2.30;99.90
73586;DHT22;61865;50.232;18.614;2023-01-24T06:47:18;2.30;99.90
73586;DHT22;61865;50.232;18.614;2023-01-24T06:49:40;2.30;99.90
73586;DHT22;61865;50.232;18.614;2023-01-24T06:52:02;2.30;99.90
73586;DHT22;61865;50.232;18.614;2023-01-24T06:54:25;2.30;99.90
73586;DHT22;61865;50.232;18.614;2023-01-24T06:56:46;2.30;99.90
73586;DHT22;61865;50.232;18.614;2023-01-24T06:59:08;2.30;99.90
73586;DHT22;61865;50.232;18.614;2023-01-24T07:01:30;2.30;99.90
73586;DHT22;61865;50.232;18.614;2023-01-24T07:03:52;2.40;99.90
73586;DHT22;61865;50.232;18.614;2023-01-24T07:06:13;2.40;99.90
73586;DHT22;61865;50.232;18.614;2023-01-24T07:08:35;2.40;99.90
73586;DHT22;61865;50.232;18.614;2023-01-24T07:10:58;2.40;99.90
73586;DHT22;61865;50.232;18.614;2023-01-24T07:13:20;2.40;99.90
73586;DHT22;61865;50.232;18.614;2023-01-24T07:15:42;2.50;99.90
73586;DHT22;61865;50.232;18.614;2023-01-24T07:18:04;2.50;99.90
73586;DHT22;61865;50.232;18.614;2023-01-24T07:20:32;2.50;99.90
73586;DHT22;61865;50.232;18.614;2023-01-24T07:22:54;2.50;99.90
73586;DHT22;61865;50.232;18.614;2023-01-24T07:25:17;2.50;99.90
73586;DHT22;61865;50.232;18.614;2023-01-24T07:27:41;2.50;99.90
73586;DHT22;61865;50.232;18.614;2023-01-24T07:30:04;2.50;99.90
73586;DHT22;61865;50.232;18.614;2023-01-24T07:32:26;2.50;99.90
73586;DHT22;61865;50.232;18.614;2023-01-24T07:34:48;2.50;99.90
73586;DHT22;61865;50.232;18.614;2023-01-24T07:37:09;2.50;99.90
73586;DHT22;61865;50.232;18.614;2023-01-24T07:39:31;2.50;99.90
73586;DHT22;61865;50.232;18.614;2023-01-24T07:41:53;2.60;99.90
73586;DHT22;61865;50.232;18.614;2023-01-24T07:44:16;2.60;99.90
73586;DHT22;61865;50.232;18.614;2023-01-24T07:46:37;2.60;99.90
73586;DHT22;61865;50.232;18.614;2023-01-24T07:48:59;2.60;99.90
73586;DHT22;61865;50.232;18.614;2023-01-24T07:51:21;2.70;99.90
73586;DHT22;61865;50.232;18.614;2023-01-24T07:53:43;2.70;99.90
73586;DHT22;61865;50.232;18.614;2023-01-24T07:56:05;2.70;99.90
73586;DHT22;61865;50.232;18.614;2023-01-24T07:58:27;2.70;99.90
73586;DHT22;61865;50.232;18.614;2023-01-24T08:00:50;2.70;99.90
73586;DHT22;61865;50.232;18.614;2023-01-24T08:03:11;2.70;99.90
73586;DHT22;61865;50.232;18.614;2023-01-24T08:05:34;2.80;99.90
73586;DHT22;61865;50.232;18.614;2023-01-24T08:07:57;2.80;99.90
73586;DHT22;61865;50.232;18.614;2023-01-24T08:10:19;2.80;99.90
73586;DHT22;61865;50.232;18.614;2023-01-24T08:12:41;2.80;99.90
73586;DHT22;61865;50.232;18.614;2023-01-24T08:15:03;2.90;99.90
73586;DHT22;61865;50.232;18.614;2023-01-24T08:17:28;2.90;99.90
73586;DHT22;61865;50.232;18.614;2023-01-24T08:19:49;2.90;99.90
73586;DHT22;61865;50.232;18.614;2023-01-24T08:22:11;2.90;99.90
73586;DHT22;61865;50.232;18.614;2023-01-24T08:24:33;2.90;99.90
73586;DHT22;61865;50.232;18.614;2023-01-24T08:26:55;3.00;99.90
73586;DHT22;61865;50.232;18.614;2023-01-24T08:29:16;3.00;99.90
73586;DHT22;61865;50.232;18.614;2023-01-24T08:31:38;2.90;99.90
73586;DHT22;61865;50.232;18.614;2023-01-24T08:34:01;3.00;99.90
73586;DHT22;61865;50.232;18.614;2023-01-24T08:36:26;3.00;99.90
73586;DHT22;61865;50.232;18.614;2023-01-24T08:38:47;3.00;99.90
73586;DHT22;61865;50.232;18.614;2023-01-24T08:41:09;3.00;99.90
73586;DHT22;61865;50.232;18.614;2023-01-24T08:43:31;3.00;99.90
73586;DHT22;61865;50.232;18.614;2023-01-24T08:45:53;2.90;99.90
73586;DHT22;61865;50.232;18.614;2023-01-24T08:48:15;2.90;99.90
73586;DHT22;61865;50.232;18.614;2023-01-24T08:50:38;2.90;99.90
73586;DHT22;61865;50.232;18.614;2023-01-24T08:52:59;2.90;99.90
73586;DHT22;61865;50.232;18.614;2023-01-24T08:55:21;2.90;99.90
73586;DHT22;61865;50.232;18.614;2023-01-24T08:57:43;2.90;99.90
73586;DHT22;61865;50.232;18.614;2023-01-24T09:00:05;2.90;99.90
73586;DHT22;61865;50.232;18.614;2023-01-24T09:02:27;2.90;99.90
73586;DHT22;61865;50.232;18.614;2023-01-24T09:04:49;2.90;99.90
73586;DHT22;61865;50.232;18.614;2023-01-24T09:07:12;2.90;99.90
73586;DHT22;61865;50.232;18.614;2023-01-24T09:09:34;2.90;99.90
73586;DHT22;61865;50.232;18.614;2023-01-24T09:11:56;2.80;99.90
73586;DHT22;61865;50.232;18.614;2023-01-24T09:14:18;2.80;99.90
73586;DHT22;61865;50.232;18.614;2023-01-24T09:16:39;2.90;99.90
73586;DHT22;61865;50.232;18.614;2023-01-24T09:19:01;2.90;99.90
73586;DHT22;61865;50.232;18.614;2023-01-24T09:21:23;2.90;99.90
73586;DHT22;61865;50.232;18.614;2023-01-24T09:23:46;2.90;99.90
73586;DHT22;61865;50.232;18.614;2023-01-24T09:26:08;2.90;99.90
73586;DHT22;61865;50.232;18.614;2023-01-24T09:28:29;2.90;99.90
73586;DHT22;61865;50.232;18.614;2023-01-24T09:30:51;2.80;99.90
73586;DHT22;61865;50.232;18.614;2023-01-24T09:33:13;2.80;99.90
73586;DHT22;61865;50.232;18.614;2023-01-24T09:35:34;2.80;99.90
73586;DHT22;61865;50.232;18.614;2023-01-24T09:37:56;2.80;99.90
73586;DHT22;61865;50.232;18.614;2023-01-24T09:40:31;2.80;99.90
73586;DHT22;61865;50.232;18.614;2023-01-24T09:42:58;2.90;99.90
73586;DHT22;61865;50.232;18.614;2023-01-24T09:45:22;2.90;99.90
73586;DHT22;61865;50.232;18.614;2023-01-24T09:47:47;2.90;99.90
73586;DHT22;61865;50.232;18.614;2023-01-24T09:50:13;2.90;99.90
73586;DHT22;61865;50.232;18.614;2023-01-24T09:52:36;2.90;99.90
73586;DHT22;61865;50.232;18.614;2023-01-24T09:55:00;2.90;99.90
73586;DHT22;61865;50.232;18.614;2023-01-24T09:57:26;2.90;99.90
73586;DHT22;61865;50.232;18.614;2023-01-24T09:59:49;2.80;99.90
73586;DHT22;61865;50.232;18.614;2023-01-24T10:02:14;2.80;99.90
73586;DHT22;61865;50.232;18.614;2023-01-24T10:04:36;2.80;99.90
73586;DHT22;61865;50.232;18.614;2023-01-24T10:07:15;2.80;99.90
73586;DHT22;61865;50.232;18.614;2023-01-24T10:09:47;2.70;99.90
73586;DHT22;61865;50.232;18.614;2023-01-24T10:12:16;2.70;99.90
73586;DHT22;61865;50.232;18.614;2023-01-24T10:14:48;2.70;99.90
73586;DHT22;61865;50.232;18.614;2023-01-24T10:17:20;2.70;99.90
73586;DHT22;61865;50.232;18.614;2023-01-24T10:19:55;2.70;99.90
73586;DHT22;61865;50.232;18.614;2023-01-24T10:22:30;2.70;99.90
73586;DHT22;61865;50.232;18.614;2023-01-24T10:24:58;2.70;99.90
73586;DHT22;61865;50.232;18.614;2023-01-24T10:27:25;2.70;99.90
73586;DHT22;61865;50.232;18.614;2023-01-24T10:29:52;2.70;99.90
73586;DHT22;61865;50.232;18.614;2023-01-24T10:32:16;2.70;99.90
73586;DHT22;61865;50.232;18.614;2023-01-24T10:34:40;2.70;99.90
73586;DHT22;61865;50.232;18.614;2023-01-24T10:37:04;2.70;99.90
73586;DHT22;61865;50.232;18.614;2023-01-24T10:39:27;2.70;99.90
73586;DHT22;61865;50.232;18.614;2023-01-24T10:41:49;2.70;99.90
73586;DHT22;61865;50.232;18.614;2023-01-24T10:44:12;2.70;99.90
73586;DHT22;61865;50.232;18.614;2023-01-24T10:46:51;2.80;99.90
73586;DHT22;61865;50.232;18.614;2023-01-24T10:49:19;2.80;99.90
73586;DHT22;61865;50.232;18.614;2023-01-24T10:51:42;2.80;99.90
73586;DHT22;61865;50.232;18.614;2023-01-24T10:54:03;2.80;99.90
73586;DHT22;61865;50.232;18.614;2023-01-24T10:56:25;2.90;99.90
73586;DHT22;61865;50.232;18.614;2023-01-24T10:58:54;2.90;99.90
73586;DHT22;61865;50.232;18.614;2023-01-24T11:01:17;2.90;99.90
73586;DHT22;61865;50.232;18.614;2023-01-24T11:03:41;2.90;99.90
73586;DHT22;61865;50.232;18.614;2023-01-24T11:06:02;3.00;99.90
73586;DHT22;61865;50.232;18.614;2023-01-24T11:08:25;3.00;99.90
73586;DHT22;61865;50.232;18.614;2023-01-24T11:10:47;3.00;99.90
73586;DHT22;61865;50.232;18.614;2023-01-24T11:13:23;3.00;99.90
73586;DHT22;61865;50.232;18.614;2023-01-24T11:15:46;3.10;99.90
73586;DHT22;61865;50.232;18.614;2023-01-24T11:18:12;3.10;99.90
73586;DHT22;61865;50.232;18.614;2023-01-24T11:20:38;3.10;99.90
73586;DHT22;61865;50.232;18.614;2023-01-24T11:23:03;3.10;99.90
73586;DHT22;61865;50.232;18.614;2023-01-24T11:25:25;3.10;99.90
73586;DHT22;61865;50.232;18.614;2023-01-24T11:27:47;3.10;99.90
73586;DHT22;61865;50.232;18.614;2023-01-24T11:30:14;3.10;99.90
73586;DHT22;61865;50.232;18.614;2023-01-24T11:32:37;3.20;99.90
73586;DHT22;61865;50.232;18.614;2023-01-24T11:35:05;3.20;99.90
73586;DHT22;61865;50.232;18.614;2023-01-24T11:37:55;3.20;99.90
73586;DHT22;61865;50.232;18.614;2023-01-24T11:40:28;3.20;99.90
73586;DHT22;61865;50.232;18.614;2023-01-24T11:42:57;3.20;99.90
73586;DHT22;61865;50.232;18.614;2023-01-24T11:45:29;3.20;99.90
73586;DHT22;61865;50.232;18.614;2023-01-24T11:47:55;3.30;99.90
73586;DHT22;61865;50.232;18.614;2023-01-24T11:50:30;3.30;99.90
73586;DHT22;61865;50.232;18.614;2023-01-24T11:53:02;3.40;99.90
73586;DHT22;61865;50.232;18.614;2023-01-24T11:55:34;3.40;99.90
73586;DHT22;61865;50.232;18.614;2023-01-24T11:58:04;3.50;99.90
73586;DHT22;61865;50.232;18.614;2023-01-24T12:00:33;3.50;99.90
73586;DHT22;61865;50.232;18.614;2023-01-24T12:03:02;3.50;99.90
73586;DHT22;61865;50.232;18.614;2023-01-24T12:05:31;3.50;99.90
73586;DHT22;61865;50.232;18.614;2023-01-24T12:08:06;3.50;99.90
73586;DHT22;61865;50.232;18.614;2023-01-24T12:10:34;3.50;99.90
73586;DHT22;61865;50.232;18.614;2023-01-24T12:13:03;3.50;99.90
73586;DHT22;61865;50.232;18.614;2023-01-24T12:15:29;3.50;99.90
73586;DHT22;61865;50.232;18.614;2023-01-24T12:17:57;3.50;99.90
73586;DHT22;61865;50.232;18.614;2023-01-24T12:20:26;3.50;99.90
73586;DHT22;61865;50.232;18.614;2023-01-24T12:22:51;3.60;99.90
73586;DHT22;61865;50.232;18.614;2023-01-24T12:25:19;3.60;99.90
73586;DHT22;61865;50.232;18.614;2023-01-24T12:27:41;3.60;99.90
73586;DHT22;61865;50.232;18.614;2023-01-24T12:30:05;3.70;99.90
73586;DHT22;61865;50.232;18.614;2023-01-24T12:32:28;3.60;99.90
73586;DHT22;61865;50.232;18.614;2023-01-24T12:34:53;3.60;99.90
73586;DHT22;61865;50.232;18.614;2023-01-24T12:37:20;3.60;99.90
73586;DHT22;61865;50.232;18.614;2023-01-24T12:39:46;3.50;99.90
73586;DHT22;61865;50.232;18.614;2023-01-24T12:42:16;3.50;99.90
73586;DHT22;61865;50.232;18.614;2023-01-24T12:44:38;3.50;99.90
73586;DHT22;61865;50.232;18.614;2023-01-24T12:47:06;3.50;99.90
73586;DHT22;61865;50.232;18.614;2023-01-24T12:49:33;3.40;99.90
73586;DHT22;61865;50.232;18.614;2023-01-24T12:51:59;3.50;99.90
73586;DHT22;61865;50.232;18.614;2023-01-24T12:54:25;3.40;99.90
73586;DHT22;61865;50.232;18.614;2023-01-24T12:56:52;3.40;99.90
73586;DHT22;61865;50.232;18.614;2023-01-24T12:59:19;3.50;99.90
73586;DHT22;61865;50.232;18.614;2023-01-24T13:01:53;3.50;99.90
73586;DHT22;61865;50.232;18.614;2023-01-24T13:04:20;3.50;99.90
73586;DHT22;61865;50.232;18.614;2023-01-24T13:06:47;3.50;99.90
73586;DHT22;61865;50.232;18.614;2023-01-24T13:09:13;3.50;99.90
73586;DHT22;61865;50.232;18.614;2023-01-24T13:11:41;3.50;99.90
73586;DHT22;61865;50.232;18.614;2023-01-24T13:14:07;3.60;99.90
73586;DHT22;61865;50.232;18.614;2023-01-24T13:19:15;3.60;99.90
73586;DHT22;61865;50.232;18.614;2023-01-24T13:21:44;3.70;99.90
73586;DHT22;61865;50.232;18.614;2023-01-24T13:24:19;3.60;99.90
73586;DHT22;61865;50.232;18.614;2023-01-24T13:26:55;3.60;99.90
73586;DHT22;61865;50.232;18.614;2023-01-24T13:29:20;3.50;99.90
73586;DHT22;61865;50.232;18.614;2023-01-24T13:31:49;3.50;99.90
73586;DHT22;61865;50.232;18.614;2023-01-24T13:34:16;3.50;99.90
73586;DHT22;61865;50.232;18.614;2023-01-24T13:36:40;3.50;99.90
73586;DHT22;61865;50.232;18.614;2023-01-24T13:39:02;3.40;99.90
73586;DHT22;61865;50.232;18.614;2023-01-24T13:41:34;3.40;99.90
73586;DHT22;61865;50.232;18.614;2023-01-24T13:43:58;3.50;99.90
73586;DHT22;61865;50.232;18.614;2023-01-24T13:46:26;3.40;99.90
73586;DHT22;61865;50.232;18.614;2023-01-24T13:49:13;3.40;99.90
73586;DHT22;61865;50.232;18.614;2023-01-24T13:51:48;3.40;99.90
73586;DHT22;61865;50.232;18.614;2023-01-24T13:54:17;3.40;99.90
73586;DHT22;61865;50.232;18.614;2023-01-24T13:59:27;3.30;99.90
73586;DHT22;61865;50.232;18.614;2023-01-24T14:01:51;3.30;99.90
73586;DHT22;61865;50.232;18.614;2023-01-24T14:04:15;3.20;99.90
73586;DHT22;61865;50.232;18.614;2023-01-24T14:06:40;3.20;99.90
73586;DHT22;61865;50.232;18.614;2023-01-24T14:09:16;3.20;99.90
73586;DHT22;61865;50.232;18.614;2023-01-24T14:11:44;3.10;99.90
73586;DHT22;61865;50.232;18.614;2023-01-24T14:14:31;3.10;99.90
73586;DHT22;61865;50.232;18.614;2023-01-24T14:19:36;3.10;99.90
73586;DHT22;61865;50.232;18.614;2023-01-24T14:21:59;3.10;99.90
73586;DHT22;61865;50.232;18.614;2023-01-24T14:24:27;3.10;99.90
73586;DHT22;61865;50.232;18.614;2023-01-24T14:26:50;3.10;99.90
73586;DHT22;61865;50.232;18.614;2023-01-24T14:29:15;3.10;99.90
73586;DHT22;61865;50.232;18.614;2023-01-24T14:31:38;3.10;99.90
73586;DHT22;61865;50.232;18.614;2023-01-24T14:34:04;3.10;99.90
73586;DHT22;61865;50.232;18.614;2023-01-24T14:36:29;3.10;99.90
73586;DHT22;61865;50.232;18.614;2023-01-24T14:41:29;3.00;99.90
73586;DHT22;61865;50.232;18.614;2023-01-24T14:43:51;3.00;99.90
73586;DHT22;61865;50.232;18.614;2023-01-24T14:46:15;3.00;99.90
73586;DHT22;61865;50.232;18.614;2023-01-24T14:48:38;3.00;99.90
73586;DHT22;61865;50.232;18.614;2023-01-24T14:51:03;2.90;99.90
73586;DHT22;61865;50.232;18.614;2023-01-24T14:53:27;2.90;99.90
73586;DHT22;61865;50.232;18.614;2023-01-24T14:55:49;2.90;99.90
73586;DHT22;61865;50.232;18.614;2023-01-24T14:58:19;2.90;99.90
73586;DHT22;61865;50.232;18.614;2023-01-24T15:00:41;2.90;99.90
73586;DHT22;61865;50.232;18.614;2023-01-24T15:03:03;2.90;99.90
73586;DHT22;61865;50.232;18.614;2023-01-24T15:05:26;2.80;99.90
73586;DHT22;61865;50.232;18.614;2023-01-24T15:07:50;2.90;99.90
73586;DHT22;61865;50.232;18.614;2023-01-24T15:10:13;2.90;99.90
73586;DHT22;61865;50.232;18.614;2023-01-24T15:12:37;2.80;99.90
73586;DHT22;61865;50.232;18.614;2023-01-24T15:15:01;2.80;99.90
73586;DHT22;61865;50.232;18.614;2023-01-24T15:17:26;2.80;99.90
73586;DHT22;61865;50.232;18.614;2023-01-24T15:19:48;2.80;99.90
73586;DHT22;61865;50.232;18.614;2023-01-24T15:22:14;2.80;99.90
73586;DHT22;61865;50.232;18.614;2023-01-24T15:24:38;2.80;99.90